Billings, MT (59112)

3:00 AM MDT on August 05, 2015 (GMT -0600)
QTH | | Change Station
CLOSE
Current Station
Personal Weather Station
Location: Billings, MT
Elevation: 3228 ft
Nearby Weather Stations

Elev 3228 ft 45.78 °N, 108.57 °W | Updated 53 seconds ago

Partly Cloudy
Partly Cloudy
59.9 °F
Feels Like 59.9 °F
N
0.7
Wind Variable Wind from South
Gusts 2.2 mph

Today
High -- | Low -- °F
--% Chance of Precip.
Yesterday
High -- | Low -- °F
Precip. -- in
6:01 AM 8:37 PM
Waning Gibbous, 69% visible
Pressure 29.91 in
Visibility 10.0 miles
Clouds Few 20000 ft
Dew Point 55 °F
Humidity 85%
Rainfall 0.00 in
Snow Depth Not available.
UV 0 out of 12
Pollen 5.60 out of 12
Air Quality Not available.
Flu Activity Not available.
METAR KBIL 050853Z 22008KT 10SM FEW200 17/12 A2998 RMK AO2 SLP127 T01670117 58006

More Conditions Fewer Conditions

Pressure 29.91 in
Visibility 10.0 miles
Clouds Few 20000 ft
Dew Point 55 °F
Humidity 85%
Rainfall 0.00 in
Snow Depth Not available.
UV 0 out of 12
Pollen 5.60 out of 12
Air Quality Not available.
Flu Activity Not available.
METAR KBIL 050853Z 22008KT 10SM FEW200 17/12 A2998 RMK AO2 SLP127 T01670117 58006

More Conditions Fewer Conditions

10-Day Weather Forecast

×

Almanac

Astronomy

Aug. 05, 2015 Rise Set
Actual Time
Civil Twilight
Nautical Twilight
Astronomical Twilight
Moon
Length of Visible Light
Length of Day
Tomorrow will be .
, % of the Moon is Illuminated

Today's Extremes

State Highs State Lows

Community

WunderPhotos

Upload Photos

1,844,105 photos uploaded!

WunderBlogs® & News

Nearby

Air Quality

  Air Quality AQ Index Pollutant
Not available.

Snow Depth

Station Depth Elevation

Earthquake Activity

City Distance Mag. Time & Date
Minimum magnitude displayed is 2.5.

Coastal Water Temperatures

Place Temperature

Stations

Nearby Weather Stations

Station Location Temp. Windchill Dew Point Humidity Wind Precip. Elev Updated Type